sensor_id;sensor_type;location;lat;lon;timestamp;pressure;altitude;pressure_sealevel;temperature;humidity
11041;BME280;5573;49.592;8.662;2022-08-19T00:01:59;99461.28;;;20.12;100.00
11041;BME280;5573;49.592;8.662;2022-08-19T00:04:47;99462.03;;;20.12;100.00
11041;BME280;5573;49.592;8.662;2022-08-19T00:07:40;99470.31;;;20.16;100.00
11041;BME280;5573;49.592;8.662;2022-08-19T00:10:29;99460.03;;;20.13;100.00
11041;BME280;5573;49.592;8.662;2022-08-19T00:13:18;99455.09;;;20.17;100.00
11041;BME280;5573;49.592;8.662;2022-08-19T00:16:07;99445.50;;;20.18;100.00
11041;BME280;5573;49.592;8.662;2022-08-19T00:18:55;99428.72;;;20.18;100.00
11041;BME280;5573;49.592;8.662;2022-08-19T00:21:43;99426.28;;;20.20;100.00
11041;BME280;5573;49.592;8.662;2022-08-19T00:24:34;99371.94;;;19.89;100.00
11041;BME280;5573;49.592;8.662;2022-08-19T00:27:23;99403.13;;;20.19;100.00
11041;BME280;5573;49.592;8.662;2022-08-19T00:30:13;99400.00;;;20.17;100.00
11041;BME280;5573;49.592;8.662;2022-08-19T00:33:01;99404.50;;;20.15;100.00
11041;BME280;5573;49.592;8.662;2022-08-19T00:35:49;99397.78;;;20.03;100.00
11041;BME280;5573;49.592;8.662;2022-08-19T00:38:42;99404.91;;;20.04;100.00
11041;BME280;5573;49.592;8.662;2022-08-19T00:41:32;99406.94;;;20.03;100.00
11041;BME280;5573;49.592;8.662;2022-08-19T00:44:23;99406.59;;;20.01;100.00
11041;BME280;5573;49.592;8.662;2022-08-19T00:47:13;99405.84;;;20.01;100.00
11041;BME280;5573;49.592;8.662;2022-08-19T00:50:03;99399.44;;;20.00;100.00
11041;BME280;5573;49.592;8.662;2022-08-19T00:52:52;99404.91;;;20.04;100.00
11041;BME280;5573;49.592;8.662;2022-08-19T00:55:42;99417.38;;;20.12;100.00
11041;BME280;5573;49.592;8.662;2022-08-19T00:58:34;99413.34;;;20.13;100.00
11041;BME280;5573;49.592;8.662;2022-08-19T01:01:23;99412.44;;;20.16;100.00
11041;BME280;5573;49.592;8.662;2022-08-19T01:04:12;99421.91;;;20.19;100.00
11041;BME280;5573;49.592;8.662;2022-08-19T01:07:01;99414.78;;;20.18;100.00
11041;BME280;5573;49.592;8.662;2022-08-19T01:09:50;99427.69;;;20.24;100.00
11041;BME280;5573;49.592;8.662;2022-08-19T01:12:38;99425.66;;;20.25;100.00
11041;BME280;5573;49.592;8.662;2022-08-19T01:15:31;99417.59;;;20.27;100.00
11041;BME280;5573;49.592;8.662;2022-08-19T01:18:20;99408.63;;;20.32;100.00
11041;BME280;5573;49.592;8.662;2022-08-19T01:21:12;99406.09;;;20.25;100.00
11041;BME280;5573;49.592;8.662;2022-08-19T01:24:05;99418.06;;;20.25;100.00
11041;BME280;5573;49.592;8.662;2022-08-19T01:26:53;99409.84;;;20.22;100.00
11041;BME280;5573;49.592;8.662;2022-08-19T01:29:44;99349.38;;;19.75;100.00
11041;BME280;5573;49.592;8.662;2022-08-19T01:32:33;99428.00;;;20.26;100.00
11041;BME280;5573;49.592;8.662;2022-08-19T01:35:25;99422.41;;;20.26;100.00
11041;BME280;5573;49.592;8.662;2022-08-19T01:38:21;99434.69;;;20.29;100.00
11041;BME280;5573;49.592;8.662;2022-08-19T01:41:12;99425.38;;;20.32;100.00
11041;BME280;5573;49.592;8.662;2022-08-19T01:44:00;99431.59;;;20.36;100.00
11041;BME280;5573;49.592;8.662;2022-08-19T01:47:04;99420.06;;;20.25;100.00
11041;BME280;5573;49.592;8.662;2022-08-19T01:49:53;99430.06;;;20.35;100.00
11041;BME280;5573;49.592;8.662;2022-08-19T01:52:42;99434.41;;;20.36;100.00
11041;BME280;5573;49.592;8.662;2022-08-19T01:55:31;99422.25;;;20.30;100.00
11041;BME280;5573;49.592;8.662;2022-08-19T01:58:22;99420.28;;;20.30;100.00
11041;BME280;5573;49.592;8.662;2022-08-19T02:01:18;99422.75;;;20.28;100.00
11041;BME280;5573;49.592;8.662;2022-08-19T02:04:07;99425.34;;;20.23;100.00
11041;BME280;5573;49.592;8.662;2022-08-19T02:06:57;99427.47;;;20.19;100.00
11041;BME280;5573;49.592;8.662;2022-08-19T02:09:45;99426.84;;;20.15;100.00
11041;BME280;5573;49.592;8.662;2022-08-19T02:12:33;99436.88;;;20.03;100.00
11041;BME280;5573;49.592;8.662;2022-08-19T02:15:24;99433.56;;;19.95;100.00
11041;BME280;5573;49.592;8.662;2022-08-19T02:18:13;99427.59;;;19.84;100.00
11041;BME280;5573;49.592;8.662;2022-08-19T02:21:01;99424.00;;;19.83;100.00
11041;BME280;5573;49.592;8.662;2022-08-19T02:23:50;99425.69;;;19.81;100.00
11041;BME280;5573;49.592;8.662;2022-08-19T02:26:38;99427.06;;;19.76;100.00
11041;BME280;5573;49.592;8.662;2022-08-19T02:29:27;99422.41;;;19.60;100.00
11041;BME280;5573;49.592;8.662;2022-08-19T02:32:17;99424.31;;;19.63;100.00
11041;BME280;5573;49.592;8.662;2022-08-19T02:35:07;99428.53;;;19.68;100.00
11041;BME280;5573;49.592;8.662;2022-08-19T02:37:58;99433.34;;;19.67;100.00
11041;BME280;5573;49.592;8.662;2022-08-19T02:41:06;99441.38;;;19.65;100.00
11041;BME280;5573;49.592;8.662;2022-08-19T02:43:58;99432.22;;;19.65;100.00
11041;BME280;5573;49.592;8.662;2022-08-19T02:47:07;99433.34;;;19.67;100.00
11041;BME280;5573;49.592;8.662;2022-08-19T02:49:57;99420.28;;;19.64;100.00
11041;BME280;5573;49.592;8.662;2022-08-19T02:52:45;99426.19;;;19.66;100.00
11041;BME280;5573;49.592;8.662;2022-08-19T02:55:33;99431.44;;;19.64;100.00
11041;BME280;5573;49.592;8.662;2022-08-19T02:58:32;99433.44;;;19.64;100.00
11041;BME280;5573;49.592;8.662;2022-08-19T03:01:23;99436.03;;;19.58;100.00
11041;BME280;5573;49.592;8.662;2022-08-19T03:04:14;99433.72;;;19.57;100.00
11041;BME280;5573;49.592;8.662;2022-08-19T03:07:04;99426.13;;;19.57;100.00
11041;BME280;5573;49.592;8.662;2022-08-19T03:09:57;99432.91;;;19.56;100.00
11041;BME280;5573;49.592;8.662;2022-08-19T03:12:45;99417.09;;;19.53;100.00
11041;BME280;5573;49.592;8.662;2022-08-19T03:15:33;99421.91;;;19.53;100.00
11041;BME280;5573;49.592;8.662;2022-08-19T03:18:21;99421.69;;;19.47;100.00
11041;BME280;5573;49.592;8.662;2022-08-19T03:21:14;99419.81;;;19.44;100.00
11041;BME280;5573;49.592;8.662;2022-08-19T03:24:07;99424.63;;;19.30;100.00
11041;BME280;5573;49.592;8.662;2022-08-19T03:26:56;99423.13;;;19.17;100.00
11041;BME280;5573;49.592;8.662;2022-08-19T03:29:45;99431.84;;;19.06;100.00
11041;BME280;5573;49.592;8.662;2022-08-19T03:32:35;99432.50;;;18.97;100.00
11041;BME280;5573;49.592;8.662;2022-08-19T03:35:31;99439.44;;;18.93;100.00
11041;BME280;5573;49.592;8.662;2022-08-19T03:38:20;99436.78;;;18.89;100.00
11041;BME280;5573;49.592;8.662;2022-08-19T03:41:11;99429.06;;;18.80;100.00
11041;BME280;5573;49.592;8.662;2022-08-19T03:44:00;99431.31;;;18.73;100.00
11041;BME280;5573;49.592;8.662;2022-08-19T03:46:49;99450.03;;;18.72;100.00
11041;BME280;5573;49.592;8.662;2022-08-19T03:49:38;99449.38;;;18.68;100.00
11041;BME280;5573;49.592;8.662;2022-08-19T03:52:26;99454.13;;;18.67;100.00
11041;BME280;5573;49.592;8.662;2022-08-19T03:55:14;99464.28;;;18.61;100.00
11041;BME280;5573;49.592;8.662;2022-08-19T03:58:03;99464.50;;;18.67;100.00
11041;BME280;5573;49.592;8.662;2022-08-19T04:00:53;99467.72;;;18.65;100.00
11041;BME280;5573;49.592;8.662;2022-08-19T04:03:41;99463.84;;;18.63;100.00
11041;BME280;5573;49.592;8.662;2022-08-19T04:06:31;99461.03;;;18.63;100.00
11041;BME280;5573;49.592;8.662;2022-08-19T04:09:20;99456.38;;;18.60;100.00
11041;BME280;5573;49.592;8.662;2022-08-19T04:12:09;99461.38;;;18.65;100.00
11041;BME280;5573;49.592;8.662;2022-08-19T04:14:58;99456.81;;;18.58;100.00
11041;BME280;5573;49.592;8.662;2022-08-19T04:17:46;99460.94;;;18.54;100.00
11041;BME280;5573;49.592;8.662;2022-08-19T04:20:39;99462.72;;;18.47;100.00
11041;BME280;5573;49.592;8.662;2022-08-19T04:23:27;99466.28;;;18.48;100.00
11041;BME280;5573;49.592;8.662;2022-08-19T04:26:18;99466.38;;;18.44;100.00
11041;BME280;5573;49.592;8.662;2022-08-19T04:29:10;99467.03;;;18.48;100.00
11041;BME280;5573;49.592;8.662;2022-08-19T04:32:00;99469.84;;;18.48;100.00
11041;BME280;5573;49.592;8.662;2022-08-19T04:34:55;99457.06;;;18.51;100.00
11041;BME280;5573;49.592;8.662;2022-08-19T04:38:02;99438.41;;;18.35;100.00
11041;BME280;5573;49.592;8.662;2022-08-19T04:40:51;99462.72;;;18.47;100.00
11041;BME280;5573;49.592;8.662;2022-08-19T04:43:56;99461.59;;;18.45;100.00
11041;BME280;5573;49.592;8.662;2022-08-19T04:46:50;99447.22;;;18.34;100.00
11041;BME280;5573;49.592;8.662;2022-08-19T04:49:40;99461.47;;;18.48;100.00
11041;BME280;5573;49.592;8.662;2022-08-19T04:52:28;99451.91;;;18.49;100.00
11041;BME280;5573;49.592;8.662;2022-08-19T04:55:18;99450.47;;;18.58;100.00
11041;BME280;5573;49.592;8.662;2022-08-19T04:58:06;99450.81;;;18.60;100.00
11041;BME280;5573;49.592;8.662;2022-08-19T05:00:55;99456.59;;;18.65;100.00
11041;BME280;5573;49.592;8.662;2022-08-19T05:03:43;99463.50;;;18.74;100.00
11041;BME280;5573;49.592;8.662;2022-08-19T05:06:33;99450.38;;;18.74;100.00
11041;BME280;5573;49.592;8.662;2022-08-19T05:09:21;99448.34;;;18.75;100.00
11041;BME280;5573;49.592;8.662;2022-08-19T05:12:10;99457.63;;;18.84;100.00
11041;BME280;5573;49.592;8.662;2022-08-19T05:14:58;99459.84;;;18.89;100.00
11041;BME280;5573;49.592;8.662;2022-08-19T05:17:47;99460.38;;;18.97;100.00
11041;BME280;5573;49.592;8.662;2022-08-19T05:20:49;99473.00;;;19.02;100.00
11041;BME280;5573;49.592;8.662;2022-08-19T05:23:59;99476.78;;;19.08;100.00
11041;BME280;5573;49.592;8.662;2022-08-19T05:26:48;99479.44;;;19.12;100.00
11041;BME280;5573;49.592;8.662;2022-08-19T05:29:37;99481.78;;;19.13;100.00
11041;BME280;5573;49.592;8.662;2022-08-19T05:32:25;99469.41;;;19.14;100.00
11041;BME280;5573;49.592;8.662;2022-08-19T05:35:13;99460.81;;;19.21;100.00
11041;BME280;5573;49.592;8.662;2022-08-19T05:38:02;99473.63;;;19.32;100.00
11041;BME280;5573;49.592;8.662;2022-08-19T05:40:51;99483.53;;;19.33;100.00
11041;BME280;5573;49.592;8.662;2022-08-19T05:43:39;99485.44;;;19.36;100.00
11041;BME280;5573;49.592;8.662;2022-08-19T05:46:27;99480.41;;;19.30;100.00
11041;BME280;5573;49.592;8.662;2022-08-19T05:49:16;99489.28;;;19.51;100.00
11041;BME280;5573;49.592;8.662;2022-08-19T05:52:06;99502.53;;;19.73;100.00
11041;BME280;5573;49.592;8.662;2022-08-19T05:54:54;99507.88;;;19.80;100.00
11041;BME280;5573;49.592;8.662;2022-08-19T05:57:44;99510.72;;;19.89;100.00
11041;BME280;5573;49.592;8.662;2022-08-19T06:00:32;99510.34;;;20.00;100.00
11041;BME280;5573;49.592;8.662;2022-08-19T06:03:20;99523.03;;;20.14;100.00
11041;BME280;5573;49.592;8.662;2022-08-19T06:06:11;99527.94;;;20.31;100.00
11041;BME280;5573;49.592;8.662;2022-08-19T06:09:00;99528.53;;;20.48;100.00
11041;BME280;5573;49.592;8.662;2022-08-19T06:11:49;99537.00;;;20.58;100.00
11041;BME280;5573;49.592;8.662;2022-08-19T06:14:43;99530.84;;;20.72;100.00
11041;BME280;5573;49.592;8.662;2022-08-19T06:17:32;99538.09;;;20.91;100.00
11041;BME280;5573;49.592;8.662;2022-08-19T06:20:21;99551.81;;;21.08;100.00
11041;BME280;5573;49.592;8.662;2022-08-19T06:23:30;99553.72;;;21.20;100.00
11041;BME280;5573;49.592;8.662;2022-08-19T06:26:19;99557.22;;;21.34;100.00
11041;BME280;5573;49.592;8.662;2022-08-19T06:29:09;99549.03;;;21.48;100.00
11041;BME280;5573;49.592;8.662;2022-08-19T06:32:11;99565.53;;;21.65;100.00
11041;BME280;5573;49.592;8.662;2022-08-19T06:34:59;99547.97;;;21.64;100.00
11041;BME280;5573;49.592;8.662;2022-08-19T06:37:47;99573.81;;;21.87;100.00
11041;BME280;5573;49.592;8.662;2022-08-19T06:40:35;99577.38;;;21.97;100.00
11041;BME280;5573;49.592;8.662;2022-08-19T06:43:24;99577.25;;;22.09;100.00
11041;BME280;5573;49.592;8.662;2022-08-19T06:46:17;99574.16;;;22.26;100.00
11041;BME280;5573;49.592;8.662;2022-08-19T06:49:07;99576.03;;;22.29;99.45
11041;BME280;5573;49.592;8.662;2022-08-19T06:51:57;99571.38;;;22.35;98.56
11041;BME280;5573;49.592;8.662;2022-08-19T06:54:47;99583.50;;;22.23;99.06
11041;BME280;5573;49.592;8.662;2022-08-19T06:57:42;99588.97;;;22.26;99.44
11041;BME280;5573;49.592;8.662;2022-08-19T07:00:33;99590.03;;;22.29;100.00
11041;BME280;5573;49.592;8.662;2022-08-19T07:03:21;99593.75;;;22.26;100.00
11041;BME280;5573;49.592;8.662;2022-08-19T07:06:12;99586.31;;;22.23;99.10
11041;BME280;5573;49.592;8.662;2022-08-19T07:09:22;99595.47;;;22.42;98.77
11041;BME280;5573;49.592;8.662;2022-08-19T07:12:12;99587.06;;;22.51;97.08
11041;BME280;5573;49.592;8.662;2022-08-19T07:15:03;99588.44;;;22.65;94.44
11041;BME280;5573;49.592;8.662;2022-08-19T07:17:52;99579.38;;;22.79;93.85
11041;BME280;5573;49.592;8.662;2022-08-19T07:20:41;99575.72;;;22.97;91.43
11041;BME280;5573;49.592;8.662;2022-08-19T07:23:31;99580.38;;;23.09;90.20
11041;BME280;5573;49.592;8.662;2022-08-19T07:26:21;99567.75;;;23.14;89.80
11041;BME280;5573;49.592;8.662;2022-08-19T07:29:14;99577.31;;;23.31;88.92
11041;BME280;5573;49.592;8.662;2022-08-19T07:32:05;99574.78;;;23.43;86.83
11041;BME280;5573;49.592;8.662;2022-08-19T07:34:59;99578.19;;;23.47;85.42
11041;BME280;5573;49.592;8.662;2022-08-19T07:37:49;99575.09;;;23.45;85.19
11041;BME280;5573;49.592;8.662;2022-08-19T07:40:41;99571.16;;;23.51;86.71
11041;BME280;5573;49.592;8.662;2022-08-19T07:43:32;99570.53;;;23.47;86.79
11041;BME280;5573;49.592;8.662;2022-08-19T07:46:21;99568.97;;;23.22;88.63
11041;BME280;5573;49.592;8.662;2022-08-19T07:49:10;99574.44;;;23.17;90.37
11041;BME280;5573;49.592;8.662;2022-08-19T07:52:08;99576.31;;;23.10;90.05
11041;BME280;5573;49.592;8.662;2022-08-19T07:54:57;99569.13;;;23.19;89.26
11041;BME280;5573;49.592;8.662;2022-08-19T07:57:48;99578.75;;;23.27;89.60
11041;BME280;5573;49.592;8.662;2022-08-19T08:00:36;99577.91;;;23.36;87.78
11041;BME280;5573;49.592;8.662;2022-08-19T08:03:24;99579.56;;;23.51;86.56
11041;BME280;5573;49.592;8.662;2022-08-19T08:06:34;99567.03;;;23.62;84.87
11041;BME280;5573;49.592;8.662;2022-08-19T08:09:41;99579.94;;;23.92;82.32
11041;BME280;5573;49.592;8.662;2022-08-19T08:12:39;99582.44;;;24.14;81.42
11041;BME280;5573;49.592;8.662;2022-08-19T08:15:29;99575.28;;;24.28;78.66
11041;BME280;5573;49.592;8.662;2022-08-19T08:18:17;99576.06;;;24.29;77.69
11041;BME280;5573;49.592;8.662;2022-08-19T08:21:07;99575.09;;;24.32;79.22
11041;BME280;5573;49.592;8.662;2022-08-19T08:23:55;99572.91;;;24.51;78.43
11041;BME280;5573;49.592;8.662;2022-08-19T08:26:44;99564.34;;;24.45;77.17
11041;BME280;5573;49.592;8.662;2022-08-19T08:29:38;99580.47;;;24.74;76.50
11041;BME280;5573;49.592;8.662;2022-08-19T08:32:29;99582.63;;;24.94;72.63
11041;BME280;5573;49.592;8.662;2022-08-19T08:35:20;99572.19;;;25.30;70.63
11041;BME280;5573;49.592;8.662;2022-08-19T08:38:09;99571.72;;;26.08;65.51
11041;BME280;5573;49.592;8.662;2022-08-19T08:41:03;99574.63;;;26.20;63.25
11041;BME280;5573;49.592;8.662;2022-08-19T08:43:54;99566.50;;;26.74;60.18
11041;BME280;5573;49.592;8.662;2022-08-19T08:46:47;99578.50;;;27.01;57.87
11041;BME280;5573;49.592;8.662;2022-08-19T08:49:43;99576.13;;;26.93;57.77
11041;BME280;5573;49.592;8.662;2022-08-19T08:52:42;99574.47;;;27.13;56.31
11041;BME280;5573;49.592;8.662;2022-08-19T08:55:32;99554.75;;;26.81;56.13
11041;BME280;5573;49.592;8.662;2022-08-19T08:58:28;99580.09;;;26.75;56.08
11041;BME280;5573;49.592;8.662;2022-08-19T09:01:17;99575.03;;;27.17;55.31
11041;BME280;5573;49.592;8.662;2022-08-19T09:04:06;99578.97;;;27.25;53.97
11041;BME280;5573;49.592;8.662;2022-08-19T09:07:18;99577.81;;;27.43;54.19
11041;BME280;5573;49.592;8.662;2022-08-19T09:10:28;99579.41;;;27.18;54.22
11041;BME280;5573;49.592;8.662;2022-08-19T09:13:24;99581.69;;;27.14;54.15
11041;BME280;5573;49.592;8.662;2022-08-19T09:16:23;99590.25;;;27.25;54.04
11041;BME280;5573;49.592;8.662;2022-08-19T09:19:14;99584.81;;;27.53;52.82
11041;BME280;5573;49.592;8.662;2022-08-19T09:22:09;99576.28;;;27.48;52.70
11041;BME280;5573;49.592;8.662;2022-08-19T09:24:57;99580.66;;;27.49;52.63
11041;BME280;5573;49.592;8.662;2022-08-19T09:27:46;99569.16;;;27.58;52.29
11041;BME280;5573;49.592;8.662;2022-08-19T09:30:39;99577.81;;;27.49;51.78
11041;BME280;5573;49.592;8.662;2022-08-19T09:33:27;99488.69;;;26.99;52.71
11041;BME280;5573;49.592;8.662;2022-08-19T09:36:18;99570.88;;;27.87;51.25
11041;BME280;5573;49.592;8.662;2022-08-19T09:39:22;99578.66;;;28.21;49.97
11041;BME280;5573;49.592;8.662;2022-08-19T09:42:10;99582.28;;;28.27;50.70
11041;BME280;5573;49.592;8.662;2022-08-19T09:45:05;99578.66;;;28.21;49.50
11041;BME280;5573;49.592;8.662;2022-08-19T09:47:56;99568.44;;;28.40;49.25
11041;BME280;5573;49.592;8.662;2022-08-19T09:50:44;99581.88;;;28.79;48.79
11041;BME280;5573;49.592;8.662;2022-08-19T09:53:38;99579.28;;;28.58;48.14
11041;BME280;5573;49.592;8.662;2022-08-19T09:56:29;99571.06;;;28.55;48.41
11041;BME280;5573;49.592;8.662;2022-08-19T09:59:17;99575.22;;;28.82;47.75
11041;BME280;5573;49.592;8.662;2022-08-19T10:02:05;99570.72;;;28.30;47.72
11041;BME280;5573;49.592;8.662;2022-08-19T10:04:57;99561.88;;;27.89;49.10
11041;BME280;5573;49.592;8.662;2022-08-19T10:08:12;99560.16;;;27.54;48.73
11041;BME280;5573;49.592;8.662;2022-08-19T10:11:01;99561.41;;;28.07;48.86
11041;BME280;5573;49.592;8.662;2022-08-19T10:14:11;99557.84;;;28.18;47.58
11041;BME280;5573;49.592;8.662;2022-08-19T10:17:00;99568.97;;;28.44;46.50
11041;BME280;5573;49.592;8.662;2022-08-19T10:20:06;99565.41;;;28.83;46.03
11041;BME280;5573;49.592;8.662;2022-08-19T10:22:54;99565.66;;;28.79;46.08
11041;BME280;5573;49.592;8.662;2022-08-19T10:25:43;99551.78;;;28.70;45.41
11041;BME280;5573;49.592;8.662;2022-08-19T10:28:34;99556.66;;;29.15;44.21
11041;BME280;5573;49.592;8.662;2022-08-19T10:31:28;99564.38;;;29.09;43.73
11041;BME280;5573;49.592;8.662;2022-08-19T10:34:37;99563.38;;;29.12;43.43
11041;BME280;5573;49.592;8.662;2022-08-19T10:37:36;99568.78;;;29.21;43.24
11041;BME280;5573;49.592;8.662;2022-08-19T10:40:42;99558.72;;;29.31;43.56
11041;BME280;5573;49.592;8.662;2022-08-19T10:43:30;99554.63;;;29.10;44.23
11041;BME280;5573;49.592;8.662;2022-08-19T10:46:26;99543.44;;;29.57;43.11
11041;BME280;5573;49.592;8.662;2022-08-19T10:49:15;99550.47;;;29.28;43.84
11041;BME280;5573;49.592;8.662;2022-08-19T10:52:05;99542.50;;;28.98;44.45
11041;BME280;5573;49.592;8.662;2022-08-19T10:55:21;99547.88;;;29.35;43.95
11041;BME280;5573;49.592;8.662;2022-08-19T10:58:27;99546.28;;;29.57;43.15
11041;BME280;5573;49.592;8.662;2022-08-19T11:01:15;99539.78;;;29.68;43.57
11041;BME280;5573;49.592;8.662;2022-08-19T11:04:05;99534.13;;;29.73;43.18
11041;BME280;5573;49.592;8.662;2022-08-19T11:06:55;99539.69;;;29.15;43.37
11041;BME280;5573;49.592;8.662;2022-08-19T11:09:44;99515.25;;;29.12;43.60
11041;BME280;5573;49.592;8.662;2022-08-19T11:12:33;99519.16;;;29.78;42.47
11041;BME280;5573;49.592;8.662;2022-08-19T11:15:21;99515.28;;;29.82;42.04
11041;BME280;5573;49.592;8.662;2022-08-19T11:18:09;99504.94;;;29.90;41.49
11041;BME280;5573;49.592;8.662;2022-08-19T11:21:10;99506.59;;;30.15;40.32
11041;BME280;5573;49.592;8.662;2022-08-19T11:24:00;99497.19;;;30.68;40.13
11041;BME280;5573;49.592;8.662;2022-08-19T11:26:51;99504.25;;;30.55;40.37
11041;BME280;5573;49.592;8.662;2022-08-19T11:29:40;99505.13;;;29.97;40.62
11041;BME280;5573;49.592;8.662;2022-08-19T11:32:28;99506.81;;;29.70;41.32
11041;BME280;5573;49.592;8.662;2022-08-19T11:35:16;99494.88;;;29.89;40.97
11041;BME280;5573;49.592;8.662;2022-08-19T11:38:08;99505.13;;;29.97;40.86
11041;BME280;5573;49.592;8.662;2022-08-19T11:40:57;99499.31;;;30.26;40.03
11041;BME280;5573;49.592;8.662;2022-08-19T11:43:46;99506.19;;;30.72;39.67
11041;BME280;5573;49.592;8.662;2022-08-19T11:46:35;99491.22;;;30.71;39.92
11041;BME280;5573;49.592;8.662;2022-08-19T11:49:24;99493.72;;;30.80;39.44
11041;BME280;5573;49.592;8.662;2022-08-19T11:52:12;99503.34;;;30.72;38.88
11041;BME280;5573;49.592;8.662;2022-08-19T11:55:02;99501.34;;;31.22;37.65
11041;BME280;5573;49.592;8.662;2022-08-19T11:57:50;99490.81;;;31.16;36.83
11041;BME280;5573;49.592;8.662;2022-08-19T12:00:40;99487.94;;;31.41;37.32
11041;BME280;5573;49.592;8.662;2022-08-19T12:03:29;99495.31;;;31.31;37.37
11041;BME280;5573;49.592;8.662;2022-08-19T12:06:19;99481.38;;;30.42;38.90
11041;BME280;5573;49.592;8.662;2022-08-19T12:09:10;99497.06;;;29.54;40.05
11041;BME280;5573;49.592;8.662;2022-08-19T12:12:00;99486.72;;;29.74;40.32
11041;BME280;5573;49.592;8.662;2022-08-19T12:14:48;99486.66;;;30.21;39.93
11041;BME280;5573;49.592;8.662;2022-08-19T12:17:43;99482.94;;;30.73;38.79
11041;BME280;5573;49.592;8.662;2022-08-19T12:20:34;99481.72;;;31.18;38.30
11041;BME280;5573;49.592;8.662;2022-08-19T12:23:22;99491.09;;;31.13;38.21
11041;BME280;5573;49.592;8.662;2022-08-19T12:26:11;99487.03;;;31.52;37.23
11041;BME280;5573;49.592;8.662;2022-08-19T12:29:00;99490.22;;;31.67;36.27
11041;BME280;5573;49.592;8.662;2022-08-19T12:31:48;99481.00;;;31.61;34.84
11041;BME280;5573;49.592;8.662;2022-08-19T12:34:37;99489.22;;;31.46;35.87
11041;BME280;5573;49.592;8.662;2022-08-19T12:37:25;99489.22;;;31.46;35.75
11041;BME280;5573;49.592;8.662;2022-08-19T12:40:14;99481.16;;;30.70;37.05
11041;BME280;5573;49.592;8.662;2022-08-19T12:43:05;99484.63;;;30.88;36.11
11041;BME280;5573;49.592;8.662;2022-08-19T12:45:54;99495.13;;;31.48;35.10
11041;BME280;5573;49.592;8.662;2022-08-19T12:48:43;99492.84;;;31.40;35.48
11041;BME280;5573;49.592;8.662;2022-08-19T12:51:31;99488.81;;;31.30;35.62
11041;BME280;5573;49.592;8.662;2022-08-19T12:54:19;99493.84;;;31.87;35.12
11041;BME280;5573;49.592;8.662;2022-08-19T12:57:09;99456.81;;;31.54;34.20
11041;BME280;5573;49.592;8.662;2022-08-19T12:59:57;99508.69;;;30.81;36.39
11041;BME280;5573;49.592;8.662;2022-08-19T13:02:49;99503.69;;;30.63;36.68
11041;BME280;5573;49.592;8.662;2022-08-19T13:05:37;99501.91;;;30.18;37.12
11041;BME280;5573;49.592;8.662;2022-08-19T13:08:25;99497.38;;;30.45;36.33
11041;BME280;5573;49.592;8.662;2022-08-19T13:11:16;99505.25;;;31.18;35.89
11041;BME280;5573;49.592;8.662;2022-08-19T13:14:05;99496.91;;;31.51;33.98
11041;BME280;5573;49.592;8.662;2022-08-19T13:16:53;99497.84;;;31.97;33.37
11041;BME280;5573;49.592;8.662;2022-08-19T13:19:43;99487.31;;;32.11;32.80
11041;BME280;5573;49.592;8.662;2022-08-19T13:22:31;99497.47;;;32.06;32.99
11041;BME280;5573;49.592;8.662;2022-08-19T13:25:20;99489.47;;;32.24;32.58
11041;BME280;5573;49.592;8.662;2022-08-19T13:28:08;99502.69;;;32.21;32.06
11041;BME280;5573;49.592;8.662;2022-08-19T13:30:58;99494.09;;;32.40;31.57
11041;BME280;5573;49.592;8.662;2022-08-19T13:34:04;99502.78;;;32.15;32.10
11041;BME280;5573;49.592;8.662;2022-08-19T13:36:54;99477.25;;;32.10;32.71
11041;BME280;5573;49.592;8.662;2022-08-19T13:39:42;99499.31;;;32.55;32.01
11041;BME280;5573;49.592;8.662;2022-08-19T13:42:31;99492.59;;;32.39;32.30
11041;BME280;5573;49.592;8.662;2022-08-19T13:45:22;99484.44;;;31.92;32.69
11041;BME280;5573;49.592;8.662;2022-08-19T13:48:11;99490.38;;;31.75;32.28
11041;BME280;5573;49.592;8.662;2022-08-19T13:50:59;99474.47;;;31.85;32.25
11041;BME280;5573;49.592;8.662;2022-08-19T13:53:48;99479.09;;;32.07;31.93
11041;BME280;5573;49.592;8.662;2022-08-19T13:56:40;99480.72;;;32.22;32.58
11041;BME280;5573;49.592;8.662;2022-08-19T13:59:29;99481.47;;;32.54;31.75
11041;BME280;5573;49.592;8.662;2022-08-19T14:02:17;99478.59;;;32.41;32.41
11041;BME280;5573;49.592;8.662;2022-08-19T14:05:08;99477.41;;;32.17;32.48
11041;BME280;5573;49.592;8.662;2022-08-19T14:07:57;99462.94;;;31.96;32.33
11041;BME280;5573;49.592;8.662;2022-08-19T14:10:47;99460.25;;;31.85;31.97
11041;BME280;5573;49.592;8.662;2022-08-19T14:13:36;99455.03;;;32.08;31.19
11041;BME280;5573;49.592;8.662;2022-08-19T14:16:24;99441.53;;;32.28;31.34
11041;BME280;5573;49.592;8.662;2022-08-19T14:19:14;99440.91;;;31.84;31.88
11041;BME280;5573;49.592;8.662;2022-08-19T14:22:02;99418.06;;;31.70;31.84
11041;BME280;5573;49.592;8.662;2022-08-19T14:24:51;99432.50;;;31.72;32.43
11041;BME280;5573;49.592;8.662;2022-08-19T14:27:41;99445.56;;;31.43;32.72
11041;BME280;5573;49.592;8.662;2022-08-19T14:30:30;99440.13;;;31.64;32.57
11041;BME280;5573;49.592;8.662;2022-08-19T14:33:19;99448.75;;;31.77;33.06
11041;BME280;5573;49.592;8.662;2022-08-19T14:36:14;99441.66;;;31.65;32.50
11041;BME280;5573;49.592;8.662;2022-08-19T14:39:03;99449.84;;;31.88;32.94
11041;BME280;5573;49.592;8.662;2022-08-19T14:41:52;99441.66;;;32.03;32.65
11041;BME280;5573;49.592;8.662;2022-08-19T14:44:42;99439.69;;;32.30;32.07
11041;BME280;5573;49.592;8.662;2022-08-19T14:47:31;99426.63;;;32.54;31.42
11041;BME280;5573;49.592;8.662;2022-08-19T14:50:19;99443.94;;;32.56;31.77
11041;BME280;5573;49.592;8.662;2022-08-19T14:53:08;99443.94;;;32.69;31.51
11041;BME280;5573;49.592;8.662;2022-08-19T14:55:59;99446.38;;;32.33;30.07
11041;BME280;5573;49.592;8.662;2022-08-19T14:58:47;99431.34;;;32.00;31.26
11041;BME280;5573;49.592;8.662;2022-08-19T15:01:39;99435.63;;;32.07;31.62
11041;BME280;5573;49.592;8.662;2022-08-19T15:04:28;99427.75;;;31.99;31.34
11041;BME280;5573;49.592;8.662;2022-08-19T15:07:19;99367.41;;;31.12;31.99
11041;BME280;5573;49.592;8.662;2022-08-19T15:10:12;99430.13;;;31.76;32.19
11041;BME280;5573;49.592;8.662;2022-08-19T15:13:01;99425.66;;;31.81;31.33